sensor_id;sensor_type;location;lat;lon;timestamp;temperature;humidity
18932;DHT22;9598;50.954;3.112;2022-09-16T00:04:39;16.90;99.90
18932;DHT22;9598;50.954;3.112;2022-09-16T00:09:41;16.90;99.90
18932;DHT22;9598;50.954;3.112;2022-09-16T00:14:45;16.80;99.90
18932;DHT22;9598;50.954;3.112;2022-09-16T00:19:49;16.70;99.90
18932;DHT22;9598;50.954;3.112;2022-09-16T00:24:51;16.70;99.90
18932;DHT22;9598;50.954;3.112;2022-09-16T00:29:55;16.60;99.90
18932;DHT22;9598;50.954;3.112;2022-09-16T00:34:56;16.50;99.90
18932;DHT22;9598;50.954;3.112;2022-09-16T00:39:58;16.50;99.90
18932;DHT22;9598;50.954;3.112;2022-09-16T00:45:11;16.40;99.90
18932;DHT22;9598;50.954;3.112;2022-09-16T00:50:18;16.30;99.90
18932;DHT22;9598;50.954;3.112;2022-09-16T00:55:24;16.30;99.90
18932;DHT22;9598;50.954;3.112;2022-09-16T01:00:28;16.20;99.90
18932;DHT22;9598;50.954;3.112;2022-09-16T01:05:30;16.20;99.90
18932;DHT22;9598;50.954;3.112;2022-09-16T01:10:32;16.20;99.90
18932;DHT22;9598;50.954;3.112;2022-09-16T01:15:41;16.10;99.90
18932;DHT22;9598;50.954;3.112;2022-09-16T01:21:02;16.10;99.90
18932;DHT22;9598;50.954;3.112;2022-09-16T01:26:24;16.00;99.90
18932;DHT22;9598;50.954;3.112;2022-09-16T01:31:32;15.90;99.90
18932;DHT22;9598;50.954;3.112;2022-09-16T01:36:45;15.90;99.90
18932;DHT22;9598;50.954;3.112;2022-09-16T01:42:05;15.90;99.90
18932;DHT22;9598;50.954;3.112;2022-09-16T01:47:15;15.80;99.90
18932;DHT22;9598;50.954;3.112;2022-09-16T01:52:23;15.70;99.90
18932;DHT22;9598;50.954;3.112;2022-09-16T01:57:35;15.70;99.90
18932;DHT22;9598;50.954;3.112;2022-09-16T02:02:43;15.70;99.90
18932;DHT22;9598;50.954;3.112;2022-09-16T02:07:49;15.70;99.90
18932;DHT22;9598;50.954;3.112;2022-09-16T02:12:57;15.70;99.90
18932;DHT22;9598;50.954;3.112;2022-09-16T02:18:04;15.70;99.90
18932;DHT22;9598;50.954;3.112;2022-09-16T02:23:13;15.70;99.90
18932;DHT22;9598;50.954;3.112;2022-09-16T02:28:19;15.70;99.90
18932;DHT22;9598;50.954;3.112;2022-09-16T02:33:26;15.70;99.90
18932;DHT22;9598;50.954;3.112;2022-09-16T02:38:35;15.70;99.90
18932;DHT22;9598;50.954;3.112;2022-09-16T02:43:38;15.60;99.90
18932;DHT22;9598;50.954;3.112;2022-09-16T02:48:50;15.60;99.90
18932;DHT22;9598;50.954;3.112;2022-09-16T02:53:57;15.50;99.90
18932;DHT22;9598;50.954;3.112;2022-09-16T02:59:03;15.50;99.90
18932;DHT22;9598;50.954;3.112;2022-09-16T03:04:08;15.40;99.90
18932;DHT22;9598;50.954;3.112;2022-09-16T03:09:12;15.40;99.90
18932;DHT22;9598;50.954;3.112;2022-09-16T03:14:36;15.40;99.90
18932;DHT22;9598;50.954;3.112;2022-09-16T03:19:50;15.30;99.90
18932;DHT22;9598;50.954;3.112;2022-09-16T03:25:02;15.20;99.90
18932;DHT22;9598;50.954;3.112;2022-09-16T03:30:10;15.20;99.90
18932;DHT22;9598;50.954;3.112;2022-09-16T03:35:17;15.10;99.90
18932;DHT22;9598;50.954;3.112;2022-09-16T03:40:20;15.10;99.90
18932;DHT22;9598;50.954;3.112;2022-09-16T03:45:23;15.00;99.90
18932;DHT22;9598;50.954;3.112;2022-09-16T03:50:26;15.00;99.90
18932;DHT22;9598;50.954;3.112;2022-09-16T03:55:28;15.00;99.90
18932;DHT22;9598;50.954;3.112;2022-09-16T04:00:30;15.00;99.90
18932;DHT22;9598;50.954;3.112;2022-09-16T04:05:34;15.00;99.90
18932;DHT22;9598;50.954;3.112;2022-09-16T04:10:36;15.00;99.90
18932;DHT22;9598;50.954;3.112;2022-09-16T04:15:38;15.10;99.90
18932;DHT22;9598;50.954;3.112;2022-09-16T04:20:41;15.10;99.90
18932;DHT22;9598;50.954;3.112;2022-09-16T04:25:43;15.10;99.90
18932;DHT22;9598;50.954;3.112;2022-09-16T04:30:45;15.10;99.90
18932;DHT22;9598;50.954;3.112;2022-09-16T04:35:48;15.10;99.90
18932;DHT22;9598;50.954;3.112;2022-09-16T04:40:50;15.00;99.90
18932;DHT22;9598;50.954;3.112;2022-09-16T04:45:54;15.00;99.90
18932;DHT22;9598;50.954;3.112;2022-09-16T04:51:03;15.00;99.90
18932;DHT22;9598;50.954;3.112;2022-09-16T04:56:07;15.00;99.90
18932;DHT22;9598;50.954;3.112;2022-09-16T05:01:11;15.00;99.90
18932;DHT22;9598;50.954;3.112;2022-09-16T05:06:17;14.90;99.90
18932;DHT22;9598;50.954;3.112;2022-09-16T05:11:20;14.90;99.90
18932;DHT22;9598;50.954;3.112;2022-09-16T05:16:22;14.90;99.90
18932;DHT22;9598;50.954;3.112;2022-09-16T05:21:27;14.90;99.90
18932;DHT22;9598;50.954;3.112;2022-09-16T05:26:31;14.90;99.90
18932;DHT22;9598;50.954;3.112;2022-09-16T05:31:36;14.90;99.90
18932;DHT22;9598;50.954;3.112;2022-09-16T05:36:41;14.80;99.90
18932;DHT22;9598;50.954;3.112;2022-09-16T05:41:44;14.80;99.90
18932;DHT22;9598;50.954;3.112;2022-09-16T05:46:46;14.80;99.90
18932;DHT22;9598;50.954;3.112;2022-09-16T05:51:50;14.80;99.90
18932;DHT22;9598;50.954;3.112;2022-09-16T05:56:53;14.80;99.90
18932;DHT22;9598;50.954;3.112;2022-09-16T06:01:55;14.80;99.90
18932;DHT22;9598;50.954;3.112;2022-09-16T06:06:59;14.80;99.90
18932;DHT22;9598;50.954;3.112;2022-09-16T06:12:01;14.80;99.90
18932;DHT22;9598;50.954;3.112;2022-09-16T06:17:04;14.80;99.90
18932;DHT22;9598;50.954;3.112;2022-09-16T06:22:07;14.80;99.90
18932;DHT22;9598;50.954;3.112;2022-09-16T06:27:09;14.80;99.90
18932;DHT22;9598;50.954;3.112;2022-09-16T06:32:11;14.70;99.90
18932;DHT22;9598;50.954;3.112;2022-09-16T06:37:14;14.80;99.90
18932;DHT22;9598;50.954;3.112;2022-09-16T06:42:17;14.90;99.90
18932;DHT22;9598;50.954;3.112;2022-09-16T06:47:19;14.90;99.90
18932;DHT22;9598;50.954;3.112;2022-09-16T06:52:24;15.00;99.90
18932;DHT22;9598;50.954;3.112;2022-09-16T06:57:26;15.10;99.90
18932;DHT22;9598;50.954;3.112;2022-09-16T07:02:28;15.20;99.90
18932;DHT22;9598;50.954;3.112;2022-09-16T07:07:32;15.20;99.90
18932;DHT22;9598;50.954;3.112;2022-09-16T07:12:36;15.20;99.90
18932;DHT22;9598;50.954;3.112;2022-09-16T07:17:38;15.30;99.90
18932;DHT22;9598;50.954;3.112;2022-09-16T07:22:41;15.30;99.90
18932;DHT22;9598;50.954;3.112;2022-09-16T07:27:43;15.40;99.90
18932;DHT22;9598;50.954;3.112;2022-09-16T07:32:45;15.40;99.90
18932;DHT22;9598;50.954;3.112;2022-09-16T07:37:49;15.50;99.90
18932;DHT22;9598;50.954;3.112;2022-09-16T07:42:51;15.60;99.90
18932;DHT22;9598;50.954;3.112;2022-09-16T07:47:53;15.70;99.90
18932;DHT22;9598;50.954;3.112;2022-09-16T07:52:56;15.70;99.90
18932;DHT22;9598;50.954;3.112;2022-09-16T07:57:58;15.70;99.90
18932;DHT22;9598;50.954;3.112;2022-09-16T08:03:01;15.80;99.90
18932;DHT22;9598;50.954;3.112;2022-09-16T08:08:04;16.00;99.90
18932;DHT22;9598;50.954;3.112;2022-09-16T08:13:07;16.10;99.90
18932;DHT22;9598;50.954;3.112;2022-09-16T08:18:09;16.00;99.90
18932;DHT22;9598;50.954;3.112;2022-09-16T08:23:12;16.00;99.90
18932;DHT22;9598;50.954;3.112;2022-09-16T08:28:16;16.00;99.90
18932;DHT22;9598;50.954;3.112;2022-09-16T08:33:18;16.00;99.90
18932;DHT22;9598;50.954;3.112;2022-09-16T08:38:24;15.90;99.90
18932;DHT22;9598;50.954;3.112;2022-09-16T08:43:30;15.60;99.90
18932;DHT22;9598;50.954;3.112;2022-09-16T08:48:44;15.30;99.90
18932;DHT22;9598;50.954;3.112;2022-09-16T08:53:54;15.20;99.90
18932;DHT22;9598;50.954;3.112;2022-09-16T08:59:00;15.20;99.90
18932;DHT22;9598;50.954;3.112;2022-09-16T09:04:02;15.30;99.90
18932;DHT22;9598;50.954;3.112;2022-09-16T09:09:18;15.40;99.90
18932;DHT22;9598;50.954;3.112;2022-09-16T09:14:32;15.50;99.90
18932;DHT22;9598;50.954;3.112;2022-09-16T09:19:47;15.80;99.90
18932;DHT22;9598;50.954;3.112;2022-09-16T09:25:19;16.10;99.90
18932;DHT22;9598;50.954;3.112;2022-09-16T09:30:23;16.20;99.90
18932;DHT22;9598;50.954;3.112;2022-09-16T09:35:36;16.40;99.90
18932;DHT22;9598;50.954;3.112;2022-09-16T09:40:50;16.70;99.90
18932;DHT22;9598;50.954;3.112;2022-09-16T09:45:58;16.90;99.90
18932;DHT22;9598;50.954;3.112;2022-09-16T09:51:09;16.80;99.90
18932;DHT22;9598;50.954;3.112;2022-09-16T09:56:18;16.70;99.90
18932;DHT22;9598;50.954;3.112;2022-09-16T10:01:21;16.80;99.90
18932;DHT22;9598;50.954;3.112;2022-09-16T10:06:26;17.00;99.90
18932;DHT22;9598;50.954;3.112;2022-09-16T10:11:31;17.20;99.90
18932;DHT22;9598;50.954;3.112;2022-09-16T10:16:35;17.50;99.90
18932;DHT22;9598;50.954;3.112;2022-09-16T10:21:43;17.40;99.90
18932;DHT22;9598;50.954;3.112;2022-09-16T10:26:48;17.30;99.90
18932;DHT22;9598;50.954;3.112;2022-09-16T10:31:51;17.20;99.90
18932;DHT22;9598;50.954;3.112;2022-09-16T10:37:12;17.10;99.90
18932;DHT22;9598;50.954;3.112;2022-09-16T10:42:19;17.10;99.90
18932;DHT22;9598;50.954;3.112;2022-09-16T10:47:24;17.10;99.90
18932;DHT22;9598;50.954;3.112;2022-09-16T10:52:28;17.30;99.90
18932;DHT22;9598;50.954;3.112;2022-09-16T10:57:32;17.50;99.90
18932;DHT22;9598;50.954;3.112;2022-09-16T11:03:24;17.50;99.90
18932;DHT22;9598;50.954;3.112;2022-09-16T11:08:41;17.50;99.90
18932;DHT22;9598;50.954;3.112;2022-09-16T11:13:53;17.60;99.90
18932;DHT22;9598;50.954;3.112;2022-09-16T11:19:05;17.60;99.90
18932;DHT22;9598;50.954;3.112;2022-09-16T11:24:18;17.60;99.90
18932;DHT22;9598;50.954;3.112;2022-09-16T11:29:45;17.70;99.90
18932;DHT22;9598;50.954;3.112;2022-09-16T11:35:01;17.80;99.90
18932;DHT22;9598;50.954;3.112;2022-09-16T11:40:18;17.80;99.90
18932;DHT22;9598;50.954;3.112;2022-09-16T11:45:32;17.70;99.90
18932;DHT22;9598;50.954;3.112;2022-09-16T11:50:45;17.60;99.90
18932;DHT22;9598;50.954;3.112;2022-09-16T11:55:53;17.50;99.90
18932;DHT22;9598;50.954;3.112;2022-09-16T12:01:03;17.60;99.90
18932;DHT22;9598;50.954;3.112;2022-09-16T12:06:12;17.90;99.90
18932;DHT22;9598;50.954;3.112;2022-09-16T12:11:19;18.00;99.90
18932;DHT22;9598;50.954;3.112;2022-09-16T12:16:30;18.20;99.90
18932;DHT22;9598;50.954;3.112;2022-09-16T12:21:38;18.20;99.90
18932;DHT22;9598;50.954;3.112;2022-09-16T12:26:43;18.00;99.90
18932;DHT22;9598;50.954;3.112;2022-09-16T12:31:51;17.40;99.90
18932;DHT22;9598;50.954;3.112;2022-09-16T12:36:58;17.10;99.90
18932;DHT22;9598;50.954;3.112;2022-09-16T12:42:16;17.00;99.90
18932;DHT22;9598;50.954;3.112;2022-09-16T12:47:37;17.10;99.90
18932;DHT22;9598;50.954;3.112;2022-09-16T12:58:47;17.30;99.90
18932;DHT22;9598;50.954;3.112;2022-09-16T13:03:56;17.50;99.90
18932;DHT22;9598;50.954;3.112;2022-09-16T13:09:13;17.60;99.90
18932;DHT22;9598;50.954;3.112;2022-09-16T13:14:21;17.70;99.90
18932;DHT22;9598;50.954;3.112;2022-09-16T13:19:36;17.50;99.90
18932;DHT22;9598;50.954;3.112;2022-09-16T13:24:44;17.40;99.90
18932;DHT22;9598;50.954;3.112;2022-09-16T13:29:47;17.30;99.90
18932;DHT22;9598;50.954;3.112;2022-09-16T13:35:01;17.20;99.90
18932;DHT22;9598;50.954;3.112;2022-09-16T13:40:16;16.90;99.90
18932;DHT22;9598;50.954;3.112;2022-09-16T13:45:33;16.80;99.90
18932;DHT22;9598;50.954;3.112;2022-09-16T13:50:40;16.80;99.90
18932;DHT22;9598;50.954;3.112;2022-09-16T13:55:46;16.70;99.90
18932;DHT22;9598;50.954;3.112;2022-09-16T14:00:57;16.60;99.90
18932;DHT22;9598;50.954;3.112;2022-09-16T14:06:21;16.60;99.90
18932;DHT22;9598;50.954;3.112;2022-09-16T14:11:37;16.60;99.90
18932;DHT22;9598;50.954;3.112;2022-09-16T14:16:43;16.60;99.90
18932;DHT22;9598;50.954;3.112;2022-09-16T14:21:59;16.60;99.90
18932;DHT22;9598;50.954;3.112;2022-09-16T14:27:02;16.60;99.90
18932;DHT22;9598;50.954;3.112;2022-09-16T14:32:12;16.70;99.90
18932;DHT22;9598;50.954;3.112;2022-09-16T14:37:16;16.70;99.90
18932;DHT22;9598;50.954;3.112;2022-09-16T14:42:19;16.80;99.90
18932;DHT22;9598;50.954;3.112;2022-09-16T14:47:26;16.90;99.90
18932;DHT22;9598;50.954;3.112;2022-09-16T14:52:33;16.70;99.90
18932;DHT22;9598;50.954;3.112;2022-09-16T14:57:35;16.50;99.90
18932;DHT22;9598;50.954;3.112;2022-09-16T15:02:41;16.40;99.90
18932;DHT22;9598;50.954;3.112;2022-09-16T15:07:47;16.40;99.90
18932;DHT22;9598;50.954;3.112;2022-09-16T15:12:52;16.40;99.90
18932;DHT22;9598;50.954;3.112;2022-09-16T15:17:57;16.40;99.90
18932;DHT22;9598;50.954;3.112;2022-09-16T15:23:01;16.30;99.90
18932;DHT22;9598;50.954;3.112;2022-09-16T15:28:05;16.20;99.90
18932;DHT22;9598;50.954;3.112;2022-09-16T15:33:25;16.20;99.90
18932;DHT22;9598;50.954;3.112;2022-09-16T15:38:29;16.20;99.90
18932;DHT22;9598;50.954;3.112;2022-09-16T15:43:34;16.10;99.90
18932;DHT22;9598;50.954;3.112;2022-09-16T15:48:43;16.10;99.90
18932;DHT22;9598;50.954;3.112;2022-09-16T15:53:48;16.00;99.90
18932;DHT22;9598;50.954;3.112;2022-09-16T15:58:55;15.90;99.90
18932;DHT22;9598;50.954;3.112;2022-09-16T16:03:59;15.70;99.90
18932;DHT22;9598;50.954;3.112;2022-09-16T16:09:03;15.60;99.90
18932;DHT22;9598;50.954;3.112;2022-09-16T16:14:05;15.60;99.90
18932;DHT22;9598;50.954;3.112;2022-09-16T16:19:08;15.60;99.90
18932;DHT22;9598;50.954;3.112;2022-09-16T16:24:12;15.60;99.90
18932;DHT22;9598;50.954;3.112;2022-09-16T16:29:14;15.60;99.90
18932;DHT22;9598;50.954;3.112;2022-09-16T16:34:16;15.70;99.90
18932;DHT22;9598;50.954;3.112;2022-09-16T16:39:19;15.40;99.90
18932;DHT22;9598;50.954;3.112;2022-09-16T16:44:23;15.30;99.90
18932;DHT22;9598;50.954;3.112;2022-09-16T16:49:26;15.20;99.90
18932;DHT22;9598;50.954;3.112;2022-09-16T16:54:29;15.10;99.90
18932;DHT22;9598;50.954;3.112;2022-09-16T16:59:32;15.00;99.90
18932;DHT22;9598;50.954;3.112;2022-09-16T17:04:34;15.00;99.90
18932;DHT22;9598;50.954;3.112;2022-09-16T17:09:37;15.00;99.90
18932;DHT22;9598;50.954;3.112;2022-09-16T17:14:39;15.00;99.90
18932;DHT22;9598;50.954;3.112;2022-09-16T17:19:42;15.00;99.90
18932;DHT22;9598;50.954;3.112;2022-09-16T17:24:45;15.00;99.90
18932;DHT22;9598;50.954;3.112;2022-09-16T17:29:47;14.80;99.90
18932;DHT22;9598;50.954;3.112;2022-09-16T17:34:49;14.80;99.90
18932;DHT22;9598;50.954;3.112;2022-09-16T17:39:52;14.80;99.90
18932;DHT22;9598;50.954;3.112;2022-09-16T17:44:55;14.80;99.90
18932;DHT22;9598;50.954;3.112;2022-09-16T17:49:57;14.80;99.90
18932;DHT22;9598;50.954;3.112;2022-09-16T17:55:05;14.70;99.90
18932;DHT22;9598;50.954;3.112;2022-09-16T18:00:08;14.60;99.90
18932;DHT22;9598;50.954;3.112;2022-09-16T18:05:16;14.60;99.90
18932;DHT22;9598;50.954;3.112;2022-09-16T18:10:19;14.70;99.90
18932;DHT22;9598;50.954;3.112;2022-09-16T18:15:23;14.70;99.90
18932;DHT22;9598;50.954;3.112;2022-09-16T18:20:25;14.70;99.90
18932;DHT22;9598;50.954;3.112;2022-09-16T18:25:28;14.70;99.90
18932;DHT22;9598;50.954;3.112;2022-09-16T18:30:31;14.70;99.90
18932;DHT22;9598;50.954;3.112;2022-09-16T18:35:33;14.70;99.90
18932;DHT22;9598;50.954;3.112;2022-09-16T18:40:38;14.60;99.90
18932;DHT22;9598;50.954;3.112;2022-09-16T18:45:40;14.60;99.90
18932;DHT22;9598;50.954;3.112;2022-09-16T18:50:42;14.60;99.90
18932;DHT22;9598;50.954;3.112;2022-09-16T18:55:45;14.60;99.90
18932;DHT22;9598;50.954;3.112;2022-09-16T19:00:47;14.50;99.90
18932;DHT22;9598;50.954;3.112;2022-09-16T19:05:54;14.40;99.90
18932;DHT22;9598;50.954;3.112;2022-09-16T19:11:02;14.30;99.90
18932;DHT22;9598;50.954;3.112;2022-09-16T19:16:04;14.20;99.90
18932;DHT22;9598;50.954;3.112;2022-09-16T19:21:11;14.30;99.90
18932;DHT22;9598;50.954;3.112;2022-09-16T19:26:16;14.20;99.90
18932;DHT22;9598;50.954;3.112;2022-09-16T19:31:18;14.20;99.90
18932;DHT22;9598;50.954;3.112;2022-09-16T19:36:22;14.20;99.90
18932;DHT22;9598;50.954;3.112;2022-09-16T19:41:27;14.20;99.90
18932;DHT22;9598;50.954;3.112;2022-09-16T19:46:32;14.10;99.90
18932;DHT22;9598;50.954;3.112;2022-09-16T19:51:35;13.80;99.90
18932;DHT22;9598;50.954;3.112;2022-09-16T19:56:39;13.70;99.90
18932;DHT22;9598;50.954;3.112;2022-09-16T20:01:41;13.70;99.90
18932;DHT22;9598;50.954;3.112;2022-09-16T20:06:43;13.70;99.90
18932;DHT22;9598;50.954;3.112;2022-09-16T20:11:47;13.70;99.90
18932;DHT22;9598;50.954;3.112;2022-09-16T20:16:50;13.60;99.90
18932;DHT22;9598;50.954;3.112;2022-09-16T20:21:52;13.60;99.90
18932;DHT22;9598;50.954;3.112;2022-09-16T20:26:55;13.60;99.90
18932;DHT22;9598;50.954;3.112;2022-09-16T20:31:57;13.60;99.90
18932;DHT22;9598;50.954;3.112;2022-09-16T20:36:59;13.60;99.90
18932;DHT22;9598;50.954;3.112;2022-09-16T20:42:03;13.70;99.90
18932;DHT22;9598;50.954;3.112;2022-09-16T20:47:05;13.70;99.90
18932;DHT22;9598;50.954;3.112;2022-09-16T20:52:07;13.80;99.90
18932;DHT22;9598;50.954;3.112;2022-09-16T20:57:10;13.90;99.90
18932;DHT22;9598;50.954;3.112;2022-09-16T21:02:13;13.90;99.90
18932;DHT22;9598;50.954;3.112;2022-09-16T21:07:15;14.00;99.90
18932;DHT22;9598;50.954;3.112;2022-09-16T21:12:18;13.90;99.90
18932;DHT22;9598;50.954;3.112;2022-09-16T21:17:20;13.70;99.90
18932;DHT22;9598;50.954;3.112;2022-09-16T21:22:22;13.70;99.90
18932;DHT22;9598;50.954;3.112;2022-09-16T21:27:25;13.50;99.90
18932;DHT22;9598;50.954;3.112;2022-09-16T21:32:27;13.40;99.90
18932;DHT22;9598;50.954;3.112;2022-09-16T21:37:30;13.30;99.90
18932;DHT22;9598;50.954;3.112;2022-09-16T21:42:34;13.30;99.90
18932;DHT22;9598;50.954;3.112;2022-09-16T21:47:36;13.20;99.90
18932;DHT22;9598;50.954;3.112;2022-09-16T21:52:38;13.10;99.90
18932;DHT22;9598;50.954;3.112;2022-09-16T21:57:41;13.00;99.90
18932;DHT22;9598;50.954;3.112;2022-09-16T22:02:43;12.90;99.90
18932;DHT22;9598;50.954;3.112;2022-09-16T22:07:45;12.90;99.90
18932;DHT22;9598;50.954;3.112;2022-09-16T22:12:49;12.90;99.90
18932;DHT22;9598;50.954;3.112;2022-09-16T22:17:51;13.00;99.90
18932;DHT22;9598;50.954;3.112;2022-09-16T22:22:53;13.00;99.90
18932;DHT22;9598;50.954;3.112;2022-09-16T22:27:57;13.00;99.90
18932;DHT22;9598;50.954;3.112;2022-09-16T22:32:59;12.90;99.90
18932;DHT22;9598;50.954;3.112;2022-09-16T22:38:02;12.80;99.90
18932;DHT22;9598;50.954;3.112;2022-09-16T22:43:05;12.90;99.90
18932;DHT22;9598;50.954;3.112;2022-09-16T22:48:07;12.80;99.90
18932;DHT22;9598;50.954;3.112;2022-09-16T22:53:09;12.80;99.90
18932;DHT22;9598;50.954;3.112;2022-09-16T22:58:13;12.90;99.90
18932;DHT22;9598;50.954;3.112;2022-09-16T23:03:15;12.90;99.90
18932;DHT22;9598;50.954;3.112;2022-09-16T23:08:17;13.00;99.90
18932;DHT22;9598;50.954;3.112;2022-09-16T23:13:21;13.00;99.90
18932;DHT22;9598;50.954;3.112;2022-09-16T23:18:23;13.10;99.90
18932;DHT22;9598;50.954;3.112;2022-09-16T23:23:26;13.10;99.90
18932;DHT22;9598;50.954;3.112;2022-09-16T23:28:29;13.10;99.90
18932;DHT22;9598;50.954;3.112;2022-09-16T23:33:32;13.00;99.90
18932;DHT22;9598;50.954;3.112;2022-09-16T23:38:35;12.90;99.90
18932;DHT22;9598;50.954;3.112;2022-09-16T23:43:39;12.80;99.90
18932;DHT22;9598;50.954;3.112;2022-09-16T23:48:42;12.90;99.90
18932;DHT22;9598;50.954;3.112;2022-09-16T23:53:44;12.90;99.90
18932;DHT22;9598;50.954;3.112;2022-09-16T23:58:48;13.00;99.90
